Terminal Aerodrome Forecast
Issued by NWS

Home | Current Version | Previous Version | Text Only | Print | Product List | Glossary Off
Versions: 1 2 3 4 5 6 7 8 9 10 11 12 13 14 15 16

000
FTUS43 KICT 171437 AAA
TAFSLN
TAF AMD
KSLN 171437Z 1715/1812 20013KT P6SM BKN015
     FM171700 22017KT P6SM BKN022
     FM171900 23013KT P6SM BKN300
     FM172200 26007KT P6SM SKC
     FM180000 36007KT P6SM BKN300=

USA.gov is the U.S. government's official web portal to all federal, state and local government web resources and services.